createdAt,value
2023-03-21T00:36:05.524Z,11
2023-03-21T00:37:10.666Z,10.9
2023-03-21T00:38:13.189Z,11
2023-03-21T00:39:17.209Z,11
2023-03-21T00:40:40.771Z,11
2023-03-21T00:41:52.594Z,11
2023-03-21T00:42:56.000Z,11
2023-03-21T00:43:58.759Z,11
2023-03-21T00:45:02.228Z,11
2023-03-21T00:46:04.771Z,11
2023-03-21T00:47:09.282Z,11
2023-03-21T00:48:13.473Z,11
2023-03-21T00:49:17.101Z,10.9
2023-03-21T00:50:21.287Z,11
2023-03-21T00:51:24.301Z,11
2023-03-21T00:52:41.951Z,11
2023-03-21T00:53:44.786Z,11
2023-03-21T00:54:48.442Z,11
2023-03-21T00:55:51.176Z,11
2023-03-21T00:56:54.537Z,11
2023-03-21T00:58:03.072Z,11
2023-03-21T00:59:06.801Z,11
2023-03-21T01:00:09.302Z,11
2023-03-21T01:01:13.031Z,11
2023-03-21T01:02:16.593Z,11
2023-03-21T01:03:26.239Z,10.9
2023-03-21T01:04:29.028Z,10.9
2023-03-21T01:05:33.151Z,10.9
2023-03-21T01:06:36.010Z,10.9
2023-03-21T01:07:39.344Z,10.9
2023-03-21T01:08:54.185Z,10.9
2023-03-21T01:09:57.267Z,10.9
2023-03-21T01:11:00.142Z,10.9
2023-03-21T01:12:03.039Z,10.9
2023-03-21T01:13:05.853Z,10.9
2023-03-21T01:14:24.077Z,10.9
2023-03-21T01:15:27.136Z,10.9
2023-03-21T01:16:31.200Z,10.9
2023-03-21T01:17:34.975Z,10.9
2023-03-21T01:18:38.379Z,10.9
2023-03-21T01:19:53.054Z,10.9
2023-03-21T01:20:57.222Z,10.9
2023-03-21T01:22:00.083Z,10.9
2023-03-21T01:23:03.231Z,10.9
2023-03-21T01:24:06.290Z,10.9
2023-03-21T01:25:23.621Z,10.9
2023-03-21T01:26:26.714Z,10.9
2023-03-21T01:27:30.442Z,10.9
2023-03-21T01:28:33.546Z,10.9
2023-03-21T01:29:36.425Z,11
2023-03-21T01:30:42.490Z,10.9
2023-03-21T01:31:46.171Z,10.9
2023-03-21T01:32:49.930Z,10.9
2023-03-21T01:33:52.371Z,10.9
2023-03-21T01:34:54.935Z,10.9
2023-03-21T01:36:14.526Z,10.9
2023-03-21T01:37:25.235Z,11
2023-03-21T01:38:29.011Z,10.9
2023-03-21T01:39:31.818Z,11
2023-03-21T01:40:34.889Z,11
2023-03-21T01:41:45.276Z,11
2023-03-21T01:42:48.053Z,11
2023-03-21T01:43:50.866Z,11
2023-03-21T01:44:54.018Z,11
2023-03-21T01:45:57.605Z,11
2023-03-21T01:47:13.435Z,10.9
2023-03-21T01:48:17.012Z,10.9
2023-03-21T01:49:21.185Z,10.9
2023-03-21T01:50:24.235Z,10.9
2023-03-21T01:51:27.657Z,10.9
2023-03-21T01:52:39.785Z,10.9
2023-03-21T01:53:42.676Z,10.9
2023-03-21T01:54:45.850Z,10.9
2023-03-21T01:55:49.584Z,10.9
2023-03-21T01:56:52.598Z,10.9
2023-03-21T01:58:07.790Z,10.9
2023-03-21T01:59:10.882Z,10.9
2023-03-21T02:00:14.042Z,10.9
2023-03-21T02:01:16.909Z,10.9
2023-03-21T02:02:20.752Z,10.9
2023-03-21T02:03:36.872Z,10.9
2023-03-21T02:04:40.812Z,10.9
2023-03-21T02:05:43.280Z,11
2023-03-21T02:06:46.658Z,11
2023-03-21T02:07:50.156Z,10.9
2023-03-21T02:08:53.337Z,11
2023-03-21T02:09:56.417Z,11
2023-03-21T02:10:58.879Z,11
2023-03-21T02:12:02.543Z,11
2023-03-21T02:13:05.436Z,11
2023-03-21T02:14:15.266Z,11
2023-03-21T02:15:32.085Z,10.9
2023-03-21T02:16:35.739Z,10.9
2023-03-21T02:17:39.027Z,10.9
2023-03-21T02:18:42.383Z,10.9
2023-03-21T02:19:54.446Z,10.9
2023-03-21T02:20:57.842Z,10.9
2023-03-21T02:22:01.882Z,10.9
2023-03-21T02:23:05.497Z,10.9
2023-03-21T02:24:08.219Z,10.9
2023-03-21T02:25:23.105Z,10.9
2023-03-21T02:26:43.963Z,10.9
2023-03-21T02:28:06.793Z,10.9
2023-03-21T02:29:09.962Z,10.9
2023-03-21T02:30:35.510Z,10.9
2023-03-21T02:32:31.375Z,10.9
2023-03-21T02:33:41.328Z,10.9
2023-03-21T02:34:44.944Z,10.9
2023-03-21T02:36:08.752Z,10.8
2023-03-21T02:37:19.782Z,10.9
2023-03-21T02:38:44.513Z,10.8
2023-03-21T02:39:47.325Z,10.8
2023-03-21T02:40:50.105Z,10.8
2023-03-21T02:41:52.632Z,10.8
2023-03-21T02:43:02.275Z,10.8
2023-03-21T02:44:26.001Z,10.8
2023-03-21T02:45:29.068Z,10.8
2023-03-21T02:46:59.651Z,10.8
2023-03-21T02:48:35.486Z,10.8
2023-03-21T02:49:54.300Z,10.8
2023-03-21T02:50:57.770Z,10.8
2023-03-21T02:52:28.587Z,10.8
2023-03-21T02:53:43.457Z,10.7
2023-03-21T02:54:49.377Z,10.8
2023-03-21T02:55:52.720Z,10.7
2023-03-21T02:56:55.493Z,10.8
2023-03-21T02:58:13.858Z,10.7
2023-03-21T02:59:16.657Z,10.7
2023-03-21T03:00:19.212Z,10.8
2023-03-21T03:01:22.063Z,10.8
2023-03-21T03:02:25.579Z,10.8
2023-03-21T03:03:35.601Z,10.8
2023-03-21T03:04:38.412Z,10.8
2023-03-21T03:05:41.744Z,10.8
2023-03-21T03:06:44.468Z,10.8
2023-03-21T03:07:47.480Z,10.8
2023-03-21T03:09:03.756Z,10.8
2023-03-21T03:10:07.840Z,10.8
2023-03-21T03:11:10.861Z,10.8
2023-03-21T03:12:13.642Z,10.8
2023-03-21T03:13:16.780Z,10.9
2023-03-21T03:15:04.109Z,10.8
2023-03-21T03:16:07.324Z,10.9
2023-03-21T03:17:10.057Z,10.9
2023-03-21T03:18:12.203Z,10.8
2023-03-21T03:19:15.299Z,10.9
2023-03-21T03:20:18.148Z,10.9
2023-03-21T03:21:21.633Z,10.9
2023-03-21T03:22:24.762Z,10.9
2023-03-21T03:23:28.437Z,10.9
2023-03-21T03:24:32.396Z,10.9
2023-03-21T03:25:44.278Z,10.8
2023-03-21T03:26:47.698Z,10.8
2023-03-21T03:27:51.446Z,10.8
2023-03-21T03:28:54.487Z,10.8
2023-03-21T03:29:57.633Z,10.8
2023-03-21T03:31:12.256Z,10.8
2023-03-21T03:32:17.021Z,10.8
2023-03-21T03:33:20.051Z,10.8
2023-03-21T03:34:23.080Z,10.7
2023-03-21T03:35:26.502Z,10.8
2023-03-21T03:36:34.344Z,10.7
2023-03-21T03:37:37.507Z,10.8
2023-03-21T03:38:40.580Z,10.7
2023-03-21T03:39:44.712Z,10.8
2023-03-21T03:40:48.571Z,10.7
2023-03-21T03:42:28.621Z,10.8
2023-03-21T03:43:31.841Z,10.7
2023-03-21T03:44:35.464Z,10.7
2023-03-21T03:45:38.689Z,10.7
2023-03-21T03:46:41.632Z,10.7
2023-03-21T03:47:58.240Z,10.7
2023-03-21T03:49:02.149Z,10.7
2023-03-21T03:50:05.620Z,10.6
2023-03-21T03:51:08.744Z,10.6
2023-03-21T03:52:11.255Z,10.6
2023-03-21T03:53:19.477Z,10.6
2023-03-21T03:54:22.199Z,10.6
2023-03-21T03:55:25.938Z,10.6
2023-03-21T03:56:30.091Z,10.6
2023-03-21T03:57:33.437Z,10.6
2023-03-21T03:58:46.727Z,10.6
2023-03-21T03:59:50.305Z,10.5
2023-03-21T04:00:53.584Z,10.5
2023-03-21T04:01:56.594Z,10.5
2023-03-21T04:03:00.243Z,10.5
2023-03-21T04:04:14.126Z,10.5
2023-03-21T04:05:17.175Z,10.4
2023-03-21T04:06:19.689Z,10.4
2023-03-21T04:07:22.935Z,10.4
2023-03-21T04:08:26.045Z,10.4
2023-03-21T04:09:45.665Z,10.4
2023-03-21T04:10:49.468Z,10.4
2023-03-21T04:11:53.027Z,10.4
2023-03-21T04:12:56.400Z,10.4
2023-03-21T04:13:58.840Z,10.4
2023-03-21T04:15:11.660Z,10.4
2023-03-21T04:16:15.066Z,10.4
2023-03-21T04:17:18.382Z,10.4
2023-03-21T04:18:21.117Z,10.4
2023-03-21T04:19:23.419Z,10.4
2023-03-21T04:20:37.850Z,10.4
2023-03-21T04:21:41.585Z,10.4
2023-03-21T04:22:44.947Z,10.5
2023-03-21T04:23:47.886Z,10.5
2023-03-21T04:24:50.646Z,10.5
2023-03-21T04:25:58.193Z,10.5
2023-03-21T04:27:02.237Z,10.5
2023-03-21T04:28:05.509Z,10.5
2023-03-21T04:29:08.618Z,10.5
2023-03-21T04:30:11.989Z,10.5
2023-03-21T04:31:26.762Z,10.4
2023-03-21T04:32:30.596Z,10.5
2023-03-21T04:33:33.839Z,10.5
2023-03-21T04:34:36.527Z,10.5
2023-03-21T04:35:39.861Z,10.4
2023-03-21T04:36:43.131Z,10.4
2023-03-21T04:37:46.569Z,10.4
2023-03-21T04:38:49.639Z,10.4
2023-03-21T04:39:52.462Z,10.4
2023-03-21T04:40:55.602Z,10.4
2023-03-21T04:41:58.714Z,10.4
2023-03-21T04:43:02.468Z,10.4
2023-03-21T04:44:05.267Z,10.4
2023-03-21T04:45:07.979Z,10.4
2023-03-21T04:46:10.822Z,10.4
2023-03-21T04:47:13.787Z,10.4
2023-03-21T04:48:16.786Z,10.4
2023-03-21T04:49:20.209Z,10.4
2023-03-21T04:50:23.566Z,10.4
2023-03-21T04:51:26.709Z,10.4
2023-03-21T04:52:29.800Z,10.4
2023-03-21T04:53:33.270Z,10.4
2023-03-21T04:54:36.625Z,10.4
2023-03-21T04:55:40.121Z,10.4
2023-03-21T04:56:42.644Z,10.4
2023-03-21T04:57:46.005Z,10.4
2023-03-21T04:58:49.790Z,10.4
2023-03-21T04:59:52.587Z,10.4
2023-03-21T05:00:56.101Z,10.4
2023-03-21T05:01:58.905Z,10.4
2023-03-21T05:03:02.277Z,10.4
2023-03-21T05:04:05.131Z,10.4
2023-03-21T05:05:08.634Z,10.4
2023-03-21T05:06:11.496Z,10.4
2023-03-21T05:07:14.890Z,10.4
2023-03-21T05:08:18.179Z,10.4
2023-03-21T05:09:22.285Z,10.4
2023-03-21T05:10:25.043Z,10.4
2023-03-21T05:11:28.110Z,10.4
2023-03-21T05:12:31.570Z,10.4
2023-03-21T05:13:34.458Z,10.4
2023-03-21T05:14:37.917Z,10.4
2023-03-21T05:15:40.705Z,10.4
2023-03-21T05:16:44.671Z,10.4
2023-03-21T05:17:48.027Z,10.4
2023-03-21T05:18:50.542Z,10.4
2023-03-21T05:19:53.688Z,10.4
2023-03-21T05:20:56.483Z,10.4
2023-03-21T05:21:59.513Z,10.4
2023-03-21T05:23:03.191Z,10.5
2023-03-21T05:24:06.092Z,10.5
2023-03-21T05:25:09.728Z,10.5
2023-03-21T05:26:12.538Z,10.5
2023-03-21T05:27:15.662Z,10.5
2023-03-21T05:28:19.123Z,10.5
2023-03-21T05:29:22.584Z,10.5
2023-03-21T05:30:26.165Z,10.5
2023-03-21T05:31:29.957Z,10.5
2023-03-21T05:32:32.608Z,10.5
2023-03-21T05:33:35.673Z,10.5
2023-03-21T05:34:38.952Z,10.5
2023-03-21T05:35:42.298Z,10.5
2023-03-21T05:36:45.939Z,10.5
2023-03-21T05:37:49.054Z,10.5
2023-03-21T05:38:52.041Z,10.5
2023-03-21T05:39:54.763Z,10.5
2023-03-21T05:40:58.557Z,10.5
2023-03-21T05:42:02.102Z,10.5
2023-03-21T05:43:05.257Z,10.5
2023-03-21T05:44:08.935Z,10.5
2023-03-21T05:45:12.465Z,10.5
2023-03-21T05:46:16.350Z,10.5
2023-03-21T05:47:19.769Z,10.5
2023-03-21T05:48:22.737Z,10.5
2023-03-21T05:49:26.111Z,10.5
2023-03-21T05:50:29.483Z,10.5
2023-03-21T05:51:32.843Z,10.5
2023-03-21T05:52:35.009Z,10.5
2023-03-21T05:53:37.831Z,10.5
2023-03-21T05:54:40.301Z,10.6
2023-03-21T05:55:43.115Z,10.6
2023-03-21T05:56:46.472Z,10.5
2023-03-21T05:57:49.762Z,10.6
2023-03-21T05:58:52.347Z,10.6
2023-03-21T05:59:56.010Z,10.6
2023-03-21T06:00:59.262Z,10.6
2023-03-21T06:02:02.693Z,10.6
2023-03-21T06:03:06.263Z,10.6
2023-03-21T06:04:09.385Z,10.6
2023-03-21T06:05:12.067Z,10.6
2023-03-21T06:06:14.582Z,10.6
2023-03-21T06:07:17.577Z,10.6
2023-03-21T06:08:20.699Z,10.7
2023-03-21T06:09:23.445Z,10.7
2023-03-21T06:10:27.184Z,10.6
2023-03-21T06:11:30.611Z,10.6
2023-03-21T06:12:33.671Z,10.6
2023-03-21T06:13:36.488Z,10.6
2023-03-21T06:14:39.567Z,10.7
2023-03-21T06:15:43.478Z,10.7
2023-03-21T06:16:46.394Z,10.7
2023-03-21T06:17:50.451Z,10.6
2023-03-21T06:18:53.863Z,10.6
2023-03-21T06:19:57.265Z,10.6
2023-03-21T06:21:00.714Z,10.6
2023-03-21T06:22:02.890Z,10.7
2023-03-21T06:23:05.993Z,10.7
2023-03-21T06:24:08.706Z,10.7
2023-03-21T06:25:12.180Z,10.7
2023-03-21T06:26:15.620Z,10.7
2023-03-21T06:27:19.257Z,10.8
2023-03-21T06:28:21.706Z,10.8
2023-03-21T06:29:25.342Z,10.8
2023-03-21T06:30:28.069Z,10.8
2023-03-21T06:31:31.201Z,10.8
2023-03-21T06:32:34.838Z,10.8
2023-03-21T06:33:38.310Z,10.8
2023-03-21T06:34:41.708Z,10.8
2023-03-21T06:35:44.961Z,10.8
2023-03-21T06:36:48.084Z,10.8
2023-03-21T06:37:51.493Z,10.8
2023-03-21T06:38:54.014Z,10.8
2023-03-21T06:39:57.370Z,10.8
2023-03-21T06:40:59.994Z,10.8
2023-03-21T06:42:02.844Z,10.8
2023-03-21T06:43:05.722Z,10.8
2023-03-21T06:44:09.006Z,10.7
2023-03-21T06:45:11.564Z,10.7
2023-03-21T06:46:14.634Z,10.7
2023-03-21T06:47:18.013Z,10.7
2023-03-21T06:48:21.806Z,10.7
2023-03-21T06:49:26.002Z,10.7
2023-03-21T06:50:29.130Z,10.7
2023-03-21T06:51:32.611Z,10.7
2023-03-21T06:52:36.315Z,10.8
2023-03-21T06:53:39.463Z,10.8
2023-03-21T06:54:42.809Z,10.8
2023-03-21T06:55:46.522Z,10.8
2023-03-21T06:56:50.527Z,10.8
2023-03-21T06:57:53.704Z,10.8
2023-03-21T06:58:56.725Z,10.8
2023-03-21T07:00:00.207Z,10.8
2023-03-21T07:01:04.011Z,10.9
2023-03-21T07:02:07.674Z,10.8
2023-03-21T07:03:10.911Z,10.9
2023-03-21T07:04:14.651Z,10.9
2023-03-21T07:05:18.457Z,10.9
2023-03-21T07:06:21.890Z,10.9
2023-03-21T07:07:24.877Z,10.9
2023-03-21T07:08:28.490Z,10.9
2023-03-21T07:09:32.104Z,10.9
2023-03-21T07:10:34.974Z,10.9
2023-03-21T07:11:38.449Z,10.9
2023-03-21T07:12:41.895Z,10.9
2023-03-21T07:13:45.271Z,10.8
2023-03-21T07:14:48.748Z,10.9
2023-03-21T07:15:52.566Z,10.9
2023-03-21T07:16:55.720Z,10.9
2023-03-21T07:17:58.513Z,10.9
2023-03-21T07:19:01.596Z,10.9
2023-03-21T07:20:05.124Z,10.9
2023-03-21T07:21:08.930Z,10.9
2023-03-21T07:22:12.012Z,10.9
2023-03-21T07:23:15.838Z,10.9
2023-03-21T07:24:18.559Z,10.9
2023-03-21T07:25:21.381Z,10.9
2023-03-21T07:26:24.611Z,10.9
2023-03-21T07:27:27.691Z,10.9
2023-03-21T07:28:30.803Z,11
2023-03-21T07:29:34.153Z,10.9
2023-03-21T07:30:37.671Z,11
2023-03-21T07:31:40.943Z,11
2023-03-21T07:32:44.661Z,11
2023-03-21T07:33:47.800Z,11
2023-03-21T07:34:50.648Z,11
2023-03-21T07:35:53.864Z,11
2023-03-21T07:36:57.788Z,11
2023-03-21T07:38:00.636Z,11
2023-03-21T07:39:04.028Z,11
2023-03-21T07:40:07.817Z,11.1
2023-03-21T07:41:10.853Z,11
2023-03-21T07:42:13.680Z,11.1
2023-03-21T07:43:16.568Z,11.1
2023-03-21T07:44:19.670Z,11.1
2023-03-21T07:45:22.552Z,11.1
2023-03-21T07:46:25.948Z,11.1
2023-03-21T07:47:28.791Z,11.1
2023-03-21T07:48:32.539Z,11.1
2023-03-21T07:49:36.338Z,11.2
2023-03-21T07:50:40.116Z,11.2
2023-03-21T07:51:43.298Z,11.2
2023-03-21T07:52:47.198Z,11.2
2023-03-21T07:53:50.946Z,11.2
2023-03-21T07:54:54.302Z,11.2
2023-03-21T07:55:57.576Z,11.3
2023-03-21T07:57:01.379Z,11.2
2023-03-21T07:58:03.892Z,11.2
2023-03-21T07:59:06.641Z,11.2
2023-03-21T08:00:10.077Z,11.2
2023-03-21T08:01:13.798Z,11.2
2023-03-21T08:02:17.229Z,11.2
2023-03-21T08:03:20.636Z,11.2
2023-03-21T08:04:24.169Z,11.3
2023-03-21T08:05:27.942Z,11.3
2023-03-21T08:06:31.415Z,11.2
2023-03-21T08:07:35.015Z,11.2
2023-03-21T08:08:39.096Z,11.2
2023-03-21T08:09:42.209Z,11.3
2023-03-21T08:10:45.741Z,11.2
2023-03-21T08:11:49.164Z,11.3
2023-03-21T08:12:52.538Z,11.2
2023-03-21T08:13:55.806Z,11.2
2023-03-21T08:15:01.943Z,11.2
2023-03-21T08:16:05.678Z,11.2
2023-03-21T08:17:09.111Z,11.2
2023-03-21T08:18:12.645Z,11.2
2023-03-21T08:19:16.042Z,11.2
2023-03-21T08:20:19.045Z,11.2
2023-03-21T08:21:23.046Z,11.2
2023-03-21T08:22:26.802Z,11.2
2023-03-21T08:23:30.261Z,11.2
2023-03-21T08:24:34.009Z,11.2
2023-03-21T08:25:38.230Z,11.2
2023-03-21T08:26:42.800Z,11.3
2023-03-21T08:27:46.536Z,11.3
2023-03-21T08:28:50.279Z,11.3
2023-03-21T08:29:53.757Z,11.3
2023-03-21T08:30:57.365Z,11.3
2023-03-21T08:32:00.705Z,11.3
2023-03-21T08:33:03.486Z,11.3
2023-03-21T08:34:06.768Z,11.3
2023-03-21T08:35:09.850Z,11.3
2023-03-21T08:36:13.453Z,11.3
2023-03-21T08:37:17.481Z,11.3
2023-03-21T08:38:20.655Z,11.4
2023-03-21T08:39:24.761Z,11.4
2023-03-21T08:40:29.071Z,11.4
2023-03-21T08:41:31.676Z,11.4
2023-03-21T08:42:35.085Z,11.4
2023-03-21T08:43:38.169Z,11.4
2023-03-21T08:44:42.313Z,11.4
2023-03-21T08:45:45.064Z,11.4
2023-03-21T08:46:48.206Z,11.4
2023-03-21T08:47:51.639Z,11.5
2023-03-21T08:48:54.328Z,11.5
2023-03-21T08:50:00.053Z,11.5
2023-03-21T08:51:03.484Z,11.5
2023-03-21T08:52:06.813Z,11.5
2023-03-21T08:53:10.197Z,11.5
2023-03-21T08:54:13.713Z,11.5
2023-03-21T08:55:17.186Z,11.5
2023-03-21T08:56:20.932Z,11.5
2023-03-21T08:57:24.146Z,11.5
2023-03-21T08:58:26.684Z,11.6
2023-03-21T08:59:29.372Z,11.5
2023-03-21T09:00:32.643Z,11.6
2023-03-21T09:01:36.636Z,11.5
2023-03-21T09:02:39.813Z,11.5
2023-03-21T09:03:43.617Z,11.5
2023-03-21T09:04:46.338Z,11.6
2023-03-21T09:05:49.895Z,11.6
2023-03-21T09:06:53.279Z,11.6
2023-03-21T09:07:56.047Z,11.6
2023-03-21T09:08:59.532Z,11.6
2023-03-21T09:10:23.227Z,11.6
2023-03-21T09:11:27.322Z,11.6
2023-03-21T09:12:30.962Z,11.6
2023-03-21T09:13:34.023Z,11.6
2023-03-21T09:14:37.837Z,11.6
2023-03-21T09:15:41.898Z,11.7
2023-03-21T09:16:44.935Z,11.7
2023-03-21T09:17:48.584Z,11.7
2023-03-21T09:18:51.765Z,11.7
2023-03-21T09:19:55.265Z,11.7
2023-03-21T09:20:58.910Z,11.7
2023-03-21T09:22:02.343Z,11.8
2023-03-21T09:23:05.711Z,11.8
2023-03-21T09:24:08.440Z,11.8
2023-03-21T09:25:11.980Z,11.8
2023-03-21T09:26:16.102Z,11.9
2023-03-21T09:27:20.458Z,11.9
2023-03-21T09:28:23.644Z,11.9
2023-03-21T09:29:26.713Z,11.9
2023-03-21T09:30:30.215Z,11.9
2023-03-21T09:31:33.757Z,12
2023-03-21T09:32:36.477Z,12
2023-03-21T09:33:39.435Z,12
2023-03-21T09:34:42.496Z,12
2023-03-21T09:35:45.663Z,12
2023-03-21T09:36:48.586Z,12
2023-03-21T09:37:51.599Z,12
2023-03-21T09:38:55.407Z,12.1
2023-03-21T09:39:59.515Z,12.1
2023-03-21T09:41:02.430Z,12.1
2023-03-21T09:42:06.153Z,12.1
2023-03-21T09:43:10.012Z,12.1
2023-03-21T09:44:13.724Z,12.1
2023-03-21T09:45:17.175Z,12.1
2023-03-21T09:46:21.067Z,12.1
2023-03-21T09:47:25.386Z,12.1
2023-03-21T09:48:28.913Z,12.1
2023-03-21T09:49:32.678Z,12.2
2023-03-21T09:50:35.751Z,12.2
2023-03-21T09:51:38.983Z,12.1
2023-03-21T09:52:42.386Z,12.1
2023-03-21T09:53:45.815Z,12.1
2023-03-21T09:54:48.808Z,12.1
2023-03-21T09:55:51.881Z,12.1
2023-03-21T09:56:55.220Z,12.1
2023-03-21T09:57:58.644Z,12.1
2023-03-21T09:59:02.662Z,12.1
2023-03-21T10:00:05.482Z,12.1
2023-03-21T10:01:08.898Z,12.1
2023-03-21T10:02:12.299Z,12.1
2023-03-21T10:03:15.362Z,12.1
2023-03-21T10:04:19.003Z,12.1
2023-03-21T10:05:23.107Z,12.1
2023-03-21T10:06:26.272Z,12.1
2023-03-21T10:07:29.333Z,12.1
2023-03-21T10:08:33.201Z,12.2
2023-03-21T10:09:35.813Z,12.2
2023-03-21T10:10:40.279Z,12.2
2023-03-21T10:11:43.556Z,12.2
2023-03-21T10:12:47.648Z,12.1
2023-03-21T10:13:51.050Z,12.1
2023-03-21T10:14:58.668Z,12.1
2023-03-21T10:16:02.597Z,12.1
2023-03-21T10:17:05.663Z,12.1
2023-03-21T10:18:09.054Z,12.1
2023-03-21T10:19:12.384Z,12.1
2023-03-21T10:20:16.252Z,12.1
2023-03-21T10:22:04.631Z,12.1
2023-03-21T10:23:07.699Z,12.1
2023-03-21T10:24:10.323Z,12.1
2023-03-21T10:25:13.853Z,12.2
2023-03-21T10:26:21.374Z,12.2
2023-03-21T10:27:24.902Z,12.2
2023-03-21T10:28:31.097Z,12.2
2023-03-21T10:29:56.019Z,12.2
2023-03-21T10:31:00.195Z,12.2
2023-03-21T10:32:03.199Z,12.2
2023-03-21T10:33:07.027Z,12.2
2023-03-21T10:34:10.452Z,12.2
2023-03-21T10:35:13.391Z,12.3
2023-03-21T10:36:17.275Z,12.3
2023-03-21T10:37:20.634Z,12.4
2023-03-21T10:38:23.442Z,12.4
2023-03-21T10:39:26.002Z,12.4
2023-03-21T10:40:29.741Z,12.4
2023-03-21T10:41:32.510Z,12.4
2023-03-21T10:42:36.438Z,12.4
2023-03-21T10:43:40.457Z,12.4
2023-03-21T10:44:43.202Z,12.4
2023-03-21T10:45:46.633Z,12.4
2023-03-21T10:46:51.744Z,12.4
2023-03-21T10:47:56.490Z,12.4
2023-03-21T10:49:00.671Z,12.4
2023-03-21T10:50:11.573Z,12.4
2023-03-21T10:51:15.745Z,12.4
2023-03-21T10:52:18.907Z,12.4
2023-03-21T10:53:21.709Z,12.4
2023-03-21T10:54:25.385Z,12.4
2023-03-21T10:55:28.655Z,12.4
2023-03-21T10:56:31.453Z,12.4
2023-03-21T10:57:34.848Z,12.5
2023-03-21T10:58:37.904Z,12.5
2023-03-21T10:59:41.629Z,12.5
2023-03-21T11:00:44.756Z,12.5
2023-03-21T11:01:48.400Z,12.5
2023-03-21T11:02:52.913Z,12.5
2023-03-21T11:03:57.500Z,12.5
2023-03-21T11:05:00.930Z,12.5
2023-03-21T11:06:03.655Z,12.5
2023-03-21T11:07:07.747Z,12.5
2023-03-21T11:08:11.221Z,12.5
2023-03-21T11:09:14.586Z,12.5
2023-03-21T11:10:29.529Z,12.6
2023-03-21T11:11:33.649Z,12.6
2023-03-21T11:12:37.502Z,12.6
2023-03-21T11:13:40.590Z,12.6
2023-03-21T11:14:44.073Z,12.6
2023-03-21T11:15:46.800Z,12.6
2023-03-21T11:16:50.662Z,12.6
2023-03-21T11:17:54.379Z,12.6
2023-03-21T11:18:58.213Z,12.6
2023-03-21T11:20:01.630Z,12.6
2023-03-21T11:21:05.078Z,12.6
2023-03-21T11:22:08.821Z,12.6
2023-03-21T11:23:11.887Z,12.6
2023-03-21T11:24:14.540Z,12.6
2023-03-21T11:25:17.648Z,12.6
2023-03-21T11:26:20.733Z,12.6
2023-03-21T11:27:24.084Z,12.6
2023-03-21T11:28:27.501Z,12.6
2023-03-21T11:29:30.532Z,12.6
2023-03-21T11:30:34.169Z,12.7
2023-03-21T11:31:37.493Z,12.7
2023-03-21T11:32:40.358Z,12.7
2023-03-21T11:33:43.928Z,12.7
2023-03-21T11:34:47.388Z,12.7
2023-03-21T11:35:50.557Z,12.7
2023-03-21T11:36:54.108Z,12.7
2023-03-21T11:37:57.362Z,12.7
2023-03-21T11:39:00.751Z,12.8
2023-03-21T11:40:04.475Z,12.8
2023-03-21T11:41:08.188Z,12.8
2023-03-21T11:42:11.293Z,12.8
2023-03-21T11:43:14.599Z,12.8
2023-03-21T11:44:18.468Z,12.8
2023-03-21T11:45:22.085Z,12.8
2023-03-21T11:46:25.974Z,12.8
2023-03-21T11:47:28.927Z,12.8
2023-03-21T11:48:31.939Z,12.9
2023-03-21T11:49:36.039Z,12.9
2023-03-21T11:50:39.553Z,12.9
2023-03-21T11:51:42.578Z,12.9
2023-03-21T11:52:45.360Z,12.8
2023-03-21T11:53:49.029Z,12.9
2023-03-21T11:54:52.710Z,12.9
2023-03-21T11:55:55.952Z,12.9
2023-03-21T11:56:58.716Z,12.9
2023-03-21T11:58:15.585Z,13
2023-03-21T11:59:18.911Z,12.9
2023-03-21T12:00:21.928Z,12.9
2023-03-21T12:01:24.722Z,13
2023-03-21T12:02:28.610Z,13
2023-03-21T12:03:49.230Z,13
2023-03-21T12:04:56.948Z,13
2023-03-21T12:06:01.090Z,13
2023-03-21T12:07:04.491Z,13
2023-03-21T12:08:07.594Z,13
2023-03-21T12:09:11.175Z,13
2023-03-21T12:10:14.961Z,13
2023-03-21T12:11:18.749Z,13
2023-03-21T12:12:39.791Z,13
2023-03-21T12:13:42.862Z,13
2023-03-21T12:14:46.314Z,13
2023-03-21T12:15:50.307Z,13
2023-03-21T12:16:57.627Z,13
2023-03-21T12:18:00.689Z,13
2023-03-21T12:19:04.357Z,13.1
2023-03-21T12:20:08.155Z,13.1
2023-03-21T12:21:12.668Z,13.1
2023-03-21T12:22:16.029Z,13.1
2023-03-21T12:23:19.307Z,13.1
2023-03-21T12:24:22.919Z,13.1
2023-03-21T12:25:26.137Z,13.1
2023-03-21T12:26:29.484Z,13.1
2023-03-21T12:27:33.476Z,13.1
2023-03-21T12:28:37.829Z,13.1
2023-03-21T12:29:40.723Z,13.1
2023-03-21T12:30:43.750Z,13.1
2023-03-21T12:31:47.287Z,13.1
2023-03-21T12:32:51.087Z,13.1
2023-03-21T12:33:55.309Z,13.1
2023-03-21T12:34:58.789Z,13.1
2023-03-21T12:36:02.798Z,13.1
2023-03-21T12:37:06.736Z,13.1
2023-03-21T12:38:10.012Z,13.1
2023-03-21T12:39:13.023Z,13
2023-03-21T12:40:15.841Z,13
2023-03-21T12:41:19.653Z,13
2023-03-21T12:42:22.750Z,13
2023-03-21T12:43:25.734Z,13
2023-03-21T12:44:29.004Z,13
2023-03-21T12:45:47.973Z,13
2023-03-21T12:46:53.833Z,13
2023-03-21T12:47:57.899Z,12.9
2023-03-21T12:49:02.579Z,13
2023-03-21T12:50:05.789Z,13
2023-03-21T12:51:09.625Z,13
2023-03-21T12:52:13.466Z,13
2023-03-21T12:53:17.185Z,13
2023-03-21T12:54:19.947Z,13
2023-03-21T12:55:23.315Z,13
2023-03-21T12:56:26.703Z,13
2023-03-21T12:57:30.169Z,13
2023-03-21T12:58:34.206Z,13
2023-03-21T12:59:37.567Z,13
2023-03-21T13:00:42.256Z,13
2023-03-21T13:01:45.840Z,13
2023-03-21T13:02:49.277Z,13
2023-03-21T13:03:53.142Z,13
2023-03-21T13:04:57.202Z,13
2023-03-21T13:06:04.076Z,13.1
2023-03-21T13:07:07.785Z,13
2023-03-21T13:08:11.894Z,13
2023-03-21T13:09:19.668Z,13
2023-03-21T13:10:41.480Z,13
2023-03-21T13:11:45.207Z,13.1
2023-03-21T13:12:48.345Z,13.1
2023-03-21T13:13:51.712Z,13.1
2023-03-21T13:14:54.898Z,13.1
2023-03-21T13:15:59.085Z,13.1
2023-03-21T13:17:02.540Z,13.1
2023-03-21T13:18:05.660Z,13.1
2023-03-21T13:19:08.761Z,13.1
2023-03-21T13:20:12.318Z,13.2
2023-03-21T13:21:15.549Z,13.2
2023-03-21T13:22:19.290Z,13.2
2023-03-21T13:23:23.291Z,13.2
2023-03-21T13:24:27.360Z,13.2
2023-03-21T13:25:30.629Z,13.2
2023-03-21T13:26:33.162Z,13.2
2023-03-21T13:27:36.085Z,13.2
2023-03-21T13:28:39.303Z,13.2
2023-03-21T13:29:43.046Z,13.2
2023-03-21T13:30:46.391Z,13.2
2023-03-21T13:31:57.442Z,13.2
2023-03-21T13:33:00.724Z,13.2
2023-03-21T13:34:03.818Z,13.2
2023-03-21T13:35:06.889Z,13.2
2023-03-21T13:36:10.607Z,13.2
2023-03-21T13:37:14.517Z,13.3
2023-03-21T13:38:18.151Z,13.2
2023-03-21T13:39:22.542Z,13.2
2023-03-21T13:40:25.353Z,13.2
2023-03-21T13:41:28.227Z,13.2
2023-03-21T13:42:31.312Z,13.2
2023-03-21T13:43:34.618Z,13.3
2023-03-21T13:44:37.737Z,13.3
2023-03-21T13:45:41.908Z,13.3
2023-03-21T13:46:55.524Z,13.3
2023-03-21T13:47:58.776Z,13.3
2023-03-21T13:49:03.114Z,13.3
2023-03-21T13:50:06.220Z,13.3
2023-03-21T13:51:10.300Z,13.3
2023-03-21T13:52:14.441Z,13.3
2023-03-21T13:53:18.287Z,13.3
2023-03-21T13:54:22.141Z,13.3
2023-03-21T13:55:25.571Z,13.3
2023-03-21T13:56:28.923Z,13.3
2023-03-21T13:57:32.668Z,13.3
2023-03-21T13:58:36.189Z,13.3
2023-03-21T13:59:39.381Z,13.3
2023-03-21T14:00:42.619Z,13.3
2023-03-21T14:01:46.209Z,13.3
2023-03-21T14:02:49.313Z,13.3
2023-03-21T14:03:52.353Z,13.3
2023-03-21T14:05:07.758Z,13.3
2023-03-21T14:06:11.826Z,13.3
2023-03-21T14:07:15.646Z,13.3
2023-03-21T14:08:38.106Z,13.3
2023-03-21T14:09:42.143Z,13.3
2023-03-21T14:10:46.243Z,13.3
2023-03-21T14:11:49.083Z,13.3
2023-03-21T14:12:52.179Z,13.3
2023-03-21T14:13:55.641Z,13.3
2023-03-21T14:15:17.063Z,13.2
2023-03-21T14:16:21.007Z,13.2
2023-03-21T14:17:24.007Z,13.2
2023-03-21T14:18:55.733Z,13.2
2023-03-21T14:19:59.552Z,13.2
2023-03-21T14:21:09.338Z,13.1
2023-03-21T14:22:27.619Z,13.1
2023-03-21T14:23:31.205Z,13.1
2023-03-21T14:24:34.702Z,13.1
2023-03-21T14:25:48.818Z,13
2023-03-21T14:26:54.601Z,13
2023-03-21T14:27:58.025Z,13
2023-03-21T14:29:02.747Z,13
2023-03-21T14:30:31.486Z,13
2023-03-21T14:31:35.720Z,13
2023-03-21T14:32:39.100Z,13
2023-03-21T14:33:42.635Z,13
2023-03-21T14:34:46.046Z,13
2023-03-21T14:35:49.282Z,13
2023-03-21T14:36:59.798Z,12.9
2023-03-21T14:38:03.809Z,12.9
2023-03-21T14:39:07.346Z,12.9
2023-03-21T14:40:11.143Z,12.9
2023-03-21T14:41:14.998Z,12.9
2023-03-21T14:42:19.047Z,12.9
2023-03-21T14:43:22.193Z,12.9
2023-03-21T14:44:25.512Z,12.9
2023-03-21T14:45:29.198Z,12.9
2023-03-21T14:46:32.751Z,12.9
2023-03-21T14:47:36.088Z,12.9
2023-03-21T14:48:38.987Z,12.9
2023-03-21T14:49:42.432Z,12.9
2023-03-21T14:50:45.433Z,12.9
2023-03-21T14:51:48.432Z,12.9
2023-03-21T14:52:52.056Z,12.9
2023-03-21T14:53:55.748Z,12.9
2023-03-21T14:54:58.994Z,12.9
2023-03-21T14:56:02.539Z,12.9
2023-03-21T14:57:06.261Z,12.9
2023-03-21T14:58:10.613Z,12.9
2023-03-21T14:59:13.362Z,12.9
2023-03-21T15:00:16.892Z,12.9
2023-03-21T15:01:19.544Z,12.9
2023-03-21T15:02:23.671Z,12.9
2023-03-21T15:03:26.791Z,12.9
2023-03-21T15:04:30.029Z,12.9
2023-03-21T15:05:33.399Z,12.9
2023-03-21T15:06:36.185Z,12.9